Time;durP1;ratioP1;P1;durP2;ratioP2;P2;SDS_P1;SDS_P2;PMS_P1;PMS_P2;Temp;Humidity;BMP_temperature;BMP_pressure;BME280_temperature;BME280_humidity;BME280_pressure;Samples;Min_cycle;Max_cycle;Signal;HPM_P1;HPM_P2
2023/07/19 00:01:10;;;;;;;6.33;5.80;;;19.80;99.90;;;;;;5074369;28;20208;-64
2023/07/19 00:03:36;;;;;;;5.93;5.37;;;19.80;99.90;;;;;;5060920;28;20261;-64
2023/07/19 00:06:01;;;;;;;6.53;6.03;;;19.80;99.90;;;;;;5059437;28;20503;-64
2023/07/19 00:08:27;;;;;;;6.13;5.70;;;19.80;99.90;;;;;;5055159;28;20165;-64
2023/07/19 00:10:53;;;;;;;5.60;5.20;;;19.80;99.90;;;;;;5053824;28;20495;-60
2023/07/19 00:13:19;;;;;;;5.90;5.40;;;19.80;99.90;;;;;;5062348;28;20418;-63
2023/07/19 00:15:45;;;;;;;6.30;5.80;;;19.80;99.90;;;;;;5054429;28;20174;-64
2023/07/19 00:18:11;;;;;;;5.33;4.93;;;19.80;99.90;;;;;;5053636;28;20174;-63
2023/07/19 00:20:36;;;;;;;5.90;5.40;;;19.60;99.90;;;;;;5052586;28;20200;-64
2023/07/19 00:23:02;;;;;;;5.90;5.50;;;19.50;99.90;;;;;;5054057;28;20209;-63
2023/07/19 00:25:28;;;;;;;5.87;5.27;;;19.40;99.90;;;;;;5062892;28;20170;-63
2023/07/19 00:27:53;;;;;;;5.53;5.13;;;19.30;99.90;;;;;;5059762;28;20635;-60
2023/07/19 00:30:19;;;;;;;6.17;5.67;;;19.20;99.90;;;;;;5055047;28;20173;-62
2023/07/19 00:32:45;;;;;;;5.50;5.10;;;19.20;99.90;;;;;;5065670;28;20427;-63
2023/07/19 00:35:11;;;;;;;4.97;4.67;;;19.20;99.90;;;;;;5068843;28;20181;-63
2023/07/19 00:37:36;;;;;;;5.70;5.30;;;19.30;99.90;;;;;;5074505;28;20221;-63
2023/07/19 00:40:03;;;;;;;5.47;4.97;;;19.30;99.90;;;;;;5057606;28;20229;-64
2023/07/19 00:42:30;;;;;;;5.57;5.17;;;19.40;99.90;;;;;;5057634;28;20178;-63
2023/07/19 00:44:56;;;;;;;6.50;6.00;;;19.30;99.90;;;;;;5056300;28;20844;-62
2023/07/19 00:47:40;;;;;;;6.20;5.70;;;19.30;99.90;;;;;;5064414;28;20902;-63
2023/07/19 00:50:09;;;;;;;5.80;5.40;;;19.30;99.90;;;;;;5064279;28;20417;-63
2023/07/19 00:52:35;;;;;;;5.93;5.43;;;19.30;99.90;;;;;;5056845;28;20182;-62
2023/07/19 00:55:01;;;;;;;6.10;5.60;;;19.30;99.90;;;;;;5059202;28;20412;-63
2023/07/19 00:57:27;;;;;;;6.10;5.50;;;19.40;99.90;;;;;;5053689;28;20170;-63
2023/07/19 00:59:53;;;;;;;5.90;5.30;;;19.40;99.90;;;;;;5053750;28;20752;-60
2023/07/19 01:02:20;;;;;;;5.53;5.23;;;19.40;99.90;;;;;;5053320;28;20408;-63
2023/07/19 01:04:46;;;;;;;6.13;5.50;;;19.50;99.90;;;;;;5053749;28;20484;-63
2023/07/19 01:07:12;;;;;;;5.27;4.90;;;19.50;99.90;;;;;;5063338;28;20415;-63
2023/07/19 01:09:37;;;;;;;6.27;5.80;;;19.50;99.90;;;;;;5059872;28;20486;-63
2023/07/19 01:12:04;;;;;;;6.00;5.50;;;19.60;99.90;;;;;;5053726;28;20509;-62
2023/07/19 01:14:29;;;;;;;5.90;5.50;;;19.60;99.90;;;;;;5073451;28;20516;-63
2023/07/19 01:16:55;;;;;;;5.70;5.30;;;19.60;99.90;;;;;;5064303;28;20420;-60
2023/07/19 01:19:21;;;;;;;6.10;5.70;;;19.60;99.90;;;;;;5052761;28;20244;-62
2023/07/19 01:21:49;;;;;;;5.73;5.33;;;19.60;99.90;;;;;;5052639;28;20569;-63
2023/07/19 01:24:15;;;;;;;5.93;5.20;;;19.60;99.90;;;;;;5052808;28;20178;-63
2023/07/19 01:26:40;;;;;;;5.50;5.10;;;19.60;99.90;;;;;;5053294;28;20462;-63
2023/07/19 01:29:06;;;;;;;7.27;5.90;;;19.60;99.90;;;;;;5052442;28;20503;-63
2023/07/19 01:31:32;;;;;;;5.13;4.70;;;19.60;99.90;;;;;;5065881;28;20173;-64
2023/07/19 01:33:57;;;;;;;5.30;4.90;;;19.60;99.90;;;;;;5071993;28;20169;-60
2023/07/19 01:36:24;;;;;;;5.93;5.33;;;19.50;99.90;;;;;;5073502;28;20169;-64
2023/07/19 01:38:49;;;;;;;6.60;6.00;;;19.50;99.90;;;;;;5059994;28;20218;-64
2023/07/19 01:41:15;;;;;;;7.63;5.80;;;19.40;99.90;;;;;;5051911;28;20499;-64
2023/07/19 01:43:41;;;;;;;5.00;4.70;;;19.40;99.90;;;;;;5055170;28;20185;-64
2023/07/19 01:46:06;;;;;;;6.23;5.67;;;19.40;99.90;;;;;;5058695;28;20521;-63
2023/07/19 01:48:32;;;;;;;6.23;5.63;;;19.30;99.90;;;;;;5053393;28;20188;-63
2023/07/19 01:50:58;;;;;;;6.40;5.80;;;19.30;99.90;;;;;;5052234;28;20240;-60
2023/07/19 01:53:24;;;;;;;6.77;6.17;;;19.30;99.90;;;;;;5052947;28;20420;-63
2023/07/19 01:55:52;;;;;;;6.47;5.97;;;19.30;99.90;;;;;;5052640;28;20228;-63
2023/07/19 01:58:17;;;;;;;6.87;5.93;;;19.30;99.90;;;;;;5048463;28;20181;-63
2023/07/19 02:00:43;;;;;;;6.30;5.80;;;19.30;99.90;;;;;;5067786;28;20876;-63
2023/07/19 02:03:09;;;;;;;5.97;5.47;;;19.30;99.90;;;;;;5072127;28;20166;-63
2023/07/19 02:05:35;;;;;;;6.43;5.80;;;19.30;99.90;;;;;;5053878;28;20181;-63
2023/07/19 02:08:01;;;;;;;7.20;5.60;;;19.30;99.90;;;;;;5051810;28;20216;-61
2023/07/19 02:10:27;;;;;;;6.27;5.73;;;19.20;99.90;;;;;;5051840;28;20215;-63
2023/07/19 02:12:53;;;;;;;5.57;5.10;;;19.20;99.90;;;;;;5050634;28;20770;-64
2023/07/19 02:15:19;;;;;;;6.63;5.50;;;19.20;99.90;;;;;;5051893;28;20424;-63
2023/07/19 02:17:45;;;;;;;6.40;5.90;;;19.20;99.90;;;;;;5052805;28;20227;-64
2023/07/19 02:20:12;;;;;;;7.43;5.50;;;19.20;99.90;;;;;;5051812;28;20660;-64
2023/07/19 02:22:39;;;;;;;6.43;6.00;;;19.20;99.90;;;;;;5057552;28;20545;-63
2023/07/19 02:25:05;;;;;;;6.33;5.40;;;19.10;99.90;;;;;;5071413;28;20418;-63
2023/07/19 02:27:31;;;;;;;6.33;5.83;;;19.10;99.90;;;;;;5054353;28;20426;-63
2023/07/19 02:29:57;;;;;;;6.67;6.07;;;19.10;99.90;;;;;;5056415;28;20419;-63
2023/07/19 02:32:22;;;;;;;5.93;5.53;;;19.10;99.90;;;;;;5071566;28;20494;-64
2023/07/19 02:34:48;;;;;;;6.00;5.27;;;19.10;99.90;;;;;;5071553;28;20621;-64
2023/07/19 02:37:14;;;;;;;5.83;5.20;;;19.10;99.90;;;;;;5065030;28;20176;-63
2023/07/19 02:39:39;;;;;;;6.30;5.53;;;19.10;99.90;;;;;;5051899;28;20750;-63
2023/07/19 02:42:05;;;;;;;5.90;5.40;;;19.00;99.90;;;;;;5049928;28;20194;-63
2023/07/19 02:44:31;;;;;;;5.93;5.60;;;19.00;99.90;;;;;;5052305;28;20522;-63
2023/07/19 02:46:57;;;;;;;5.57;5.13;;;18.90;99.90;;;;;;5060493;28;20413;-64
2023/07/19 02:49:25;;;;;;;5.37;5.07;;;18.90;99.90;;;;;;5055212;28;20255;-63
2023/07/19 02:51:51;;;;;;;5.33;5.03;;;18.90;99.90;;;;;;5065931;28;20516;-63
2023/07/19 02:54:17;;;;;;;6.03;5.63;;;18.80;99.90;;;;;;5071408;28;20395;-63
2023/07/19 02:56:42;;;;;;;6.03;5.53;;;18.80;99.90;;;;;;5051137;28;20224;-63
2023/07/19 02:59:08;;;;;;;5.00;4.60;;;18.80;99.90;;;;;;5057564;28;20177;-63
2023/07/19 03:01:36;;;;;;;5.00;4.70;;;18.70;99.90;;;;;;5052101;28;20166;-64
2023/07/19 03:04:02;;;;;;;5.00;4.60;;;18.70;99.90;;;;;;5051373;28;20170;-60
2023/07/19 03:06:28;;;;;;;5.97;5.47;;;18.80;99.90;;;;;;5057489;28;20416;-64
2023/07/19 03:08:55;;;;;;;4.80;4.50;;;18.70;99.90;;;;;;5071752;28;20882;-63
2023/07/19 03:11:20;;;;;;;4.60;4.30;;;18.70;99.90;;;;;;5066274;28;20746;-63
2023/07/19 03:13:46;;;;;;;5.47;5.07;;;18.70;99.90;;;;;;5058626;28;20423;-63
2023/07/19 03:16:12;;;;;;;5.10;4.70;;;18.70;99.90;;;;;;5050423;28;20629;-63
2023/07/19 03:18:37;;;;;;;4.77;4.47;;;18.60;99.90;;;;;;5051892;28;20177;-63
2023/07/19 03:21:03;;;;;;;4.83;4.43;;;18.60;99.90;;;;;;5052261;28;20202;-60
2023/07/19 03:23:32;;;;;;;6.10;5.53;;;18.60;99.90;;;;;;5053939;28;20212;-63
2023/07/19 03:25:58;;;;;;;5.10;4.70;;;18.60;99.90;;;;;;5068340;28;20525;-63
2023/07/19 03:28:29;;;;;;;5.23;4.73;;;18.60;99.90;;;;;;5050623;28;21139;-63
2023/07/19 03:30:55;;;;;;;5.50;5.20;;;18.60;99.90;;;;;;5053430;28;20800;-62
2023/07/19 03:33:22;;;;;;;5.80;5.40;;;18.60;99.90;;;;;;5071083;28;20411;-63
2023/07/19 03:35:48;;;;;;;4.73;4.43;;;18.60;99.90;;;;;;5071028;28;20450;-63
2023/07/19 03:38:14;;;;;;;6.30;5.10;;;18.60;99.90;;;;;;5062126;28;20448;-63
2023/07/19 03:40:40;;;;;;;5.57;5.17;;;18.60;99.90;;;;;;5063203;28;20495;-63
2023/07/19 03:43:06;;;;;;;5.17;4.77;;;18.60;99.90;;;;;;5051890;28;20969;-59
2023/07/19 03:45:32;;;;;;;5.70;5.23;;;18.60;99.90;;;;;;5049252;28;20625;-61
2023/07/19 03:47:58;;;;;;;5.53;4.87;;;18.70;99.90;;;;;;5052043;28;20184;-62
2023/07/19 03:50:25;;;;;;;6.60;5.67;;;18.60;99.90;;;;;;5050319;28;21051;-61
2023/07/19 03:52:50;;;;;;;5.37;4.97;;;18.70;99.90;;;;;;5050994;28;20408;-62
2023/07/19 03:55:16;;;;;;;6.10;5.70;;;18.70;99.90;;;;;;5050568;28;20984;-61
2023/07/19 03:57:42;;;;;;;5.50;5.20;;;18.70;99.90;;;;;;5050328;28;20173;-62
2023/07/19 04:00:09;;;;;;;5.40;5.10;;;18.70;99.90;;;;;;5053231;28;20208;-61
2023/07/19 04:02:35;;;;;;;5.60;5.03;;;18.80;99.90;;;;;;5054935;28;20173;-61
2023/07/19 04:05:00;;;;;;;5.70;5.40;;;18.80;99.90;;;;;;5053566;28;20431;-61
2023/07/19 04:07:26;;;;;;;5.40;5.00;;;18.80;99.90;;;;;;5056287;28;21033;-61
2023/07/19 04:09:52;;;;;;;5.20;4.90;;;18.90;99.90;;;;;;5049165;28;20184;-62
2023/07/19 04:12:18;;;;;;;7.00;6.40;;;18.90;99.90;;;;;;5054658;28;20272;-62
2023/07/19 04:14:44;;;;;;;6.00;5.60;;;19.00;99.90;;;;;;5055495;28;20174;-62
2023/07/19 04:17:10;;;;;;;7.97;7.47;;;19.00;99.90;;;;;;5069477;28;20929;-62
2023/07/19 04:19:36;;;;;;;6.00;5.60;;;19.10;99.90;;;;;;5071896;28;20223;-63
2023/07/19 04:22:03;;;;;;;6.07;5.70;;;19.10;99.90;;;;;;5054763;28;20408;-63
2023/07/19 04:24:29;;;;;;;6.30;5.90;;;19.10;99.90;;;;;;5054900;28;20227;-66
2023/07/19 04:26:55;;;;;;;6.30;5.63;;;19.10;99.90;;;;;;5054559;28;20880;-63
2023/07/19 04:29:21;;;;;;;6.53;6.13;;;19.20;99.90;;;;;;5054002;28;20400;-62
2023/07/19 04:31:47;;;;;;;6.70;6.07;;;19.20;99.90;;;;;;5067175;28;20761;-61
2023/07/19 04:34:13;;;;;;;6.60;6.00;;;19.20;99.90;;;;;;5073769;28;20415;-61
2023/07/19 04:36:39;;;;;;;7.60;6.60;;;19.30;99.90;;;;;;5058414;28;20739;-62
2023/07/19 04:39:05;;;;;;;6.27;5.73;;;19.30;99.90;;;;;;5053503;28;20213;-59
2023/07/19 04:41:32;;;;;;;8.77;5.73;;;19.30;99.90;;;;;;5054661;28;20547;-62
2023/07/19 04:43:58;;;;;;;5.67;5.10;;;19.30;99.90;;;;;;5054437;28;20170;-63
2023/07/19 04:46:25;;;;;;;6.60;6.00;;;19.40;99.90;;;;;;5053124;28;20416;-68
2023/07/19 04:48:50;;;;;;;6.70;6.30;;;19.40;99.90;;;;;;5066025;28;20423;-62
2023/07/19 04:51:16;;;;;;;6.43;5.93;;;19.50;99.90;;;;;;5067706;28;20834;-62
2023/07/19 04:53:42;;;;;;;5.97;5.57;;;19.50;99.90;;;;;;5058967;28;20169;-62
2023/07/19 04:56:07;;;;;;;5.83;5.33;;;19.50;99.90;;;;;;5057150;28;20222;-59
2023/07/19 04:58:33;;;;;;;6.53;5.97;;;19.50;99.90;;;;;;5054765;28;20522;-66
2023/07/19 05:01:05;;;;;;;6.00;5.50;;;19.60;99.90;;;;;;5054675;28;20214;-69
2023/07/19 05:03:31;;;;;;;5.87;5.27;;;19.60;99.90;;;;;;5052716;28;20626;-68
2023/07/19 05:05:57;;;;;;;5.87;5.33;;;19.60;99.90;;;;;;5052189;28;20767;-69
2023/07/19 05:08:22;;;;;;;5.97;5.53;;;19.70;99.90;;;;;;5047253;28;20430;-70
2023/07/19 05:10:48;;;;;;;6.53;6.00;;;19.70;99.90;;;;;;5052326;28;20186;-67
2023/07/19 05:13:14;;;;;;;5.70;5.20;;;19.80;99.90;;;;;;5037262;28;20178;-69
2023/07/19 05:15:39;;;;;;;6.47;5.50;;;19.80;99.90;;;;;;5038035;28;20180;-69
2023/07/19 05:18:05;;;;;;;6.50;6.00;;;19.90;99.90;;;;;;5050574;28;20186;-68
2023/07/19 05:20:34;;;;;;;7.00;6.50;;;19.70;99.90;;;;;;5049655;28;20647;-68
2023/07/19 05:23:00;;;;;;;5.50;5.17;;;19.70;99.90;;;;;;5046688;28;20177;-68
2023/07/19 05:25:25;;;;;;;7.00;6.50;;;19.80;99.90;;;;;;5059982;28;20457;-68
2023/07/19 05:27:51;;;;;;;9.20;6.27;;;19.80;99.90;;;;;;5056842;28;20170;-68
2023/07/19 05:30:17;;;;;;;7.07;6.47;;;19.90;99.90;;;;;;5052500;28;20525;-68
2023/07/19 05:32:43;;;;;;;7.27;6.77;;;20.00;99.90;;;;;;5053096;28;20186;-69
2023/07/19 05:35:08;;;;;;;7.40;6.70;;;20.00;99.90;;;;;;5053647;28;20180;-64
2023/07/19 05:37:34;;;;;;;7.70;6.00;;;20.00;99.90;;;;;;5066614;28;20231;-69
2023/07/19 05:40:00;;;;;;;10.03;6.20;;;20.10;99.90;;;;;;5065832;28;20230;-68
2023/07/19 05:42:26;;;;;;;6.53;6.03;;;20.20;99.90;;;;;;5052118;28;20192;-68
2023/07/19 05:44:51;;;;;;;8.07;6.33;;;20.20;99.90;;;;;;5053181;28;20173;-68
2023/07/19 05:47:17;;;;;;;7.30;6.80;;;20.30;99.90;;;;;;5052215;28;20166;-68
2023/07/19 05:49:44;;;;;;;6.37;5.77;;;20.30;99.90;;;;;;5070892;28;20165;-68
2023/07/19 05:52:10;;;;;;;14.43;7.07;;;20.40;99.90;;;;;;5053924;28;20457;-62
2023/07/19 05:54:36;;;;;;;7.30;5.70;;;20.40;99.90;;;;;;5055625;28;20887;-69
2023/07/19 05:57:02;;;;;;;6.27;5.80;;;20.40;99.90;;;;;;5051050;28;20185;-68
2023/07/19 05:59:28;;;;;;;5.63;5.23;;;20.50;99.90;;;;;;5048624;28;20186;-69
2023/07/19 06:01:54;;;;;;;6.80;6.20;;;20.50;99.90;;;;;;5053157;28;20269;-69
2023/07/19 06:04:20;;;;;;;8.60;5.50;;;20.60;99.90;;;;;;5051218;28;20499;-69
2023/07/19 06:06:46;;;;;;;7.73;6.90;;;20.60;99.90;;;;;;5053166;28;20177;-69
2023/07/19 06:09:12;;;;;;;5.73;5.33;;;20.60;99.90;;;;;;5051358;28;20485;-62
2023/07/19 06:11:38;;;;;;;6.10;5.60;;;20.70;99.90;;;;;;5052411;28;20405;-68
2023/07/19 06:14:04;;;;;;;5.67;5.17;;;20.70;99.90;;;;;;5052762;28;20644;-69
2023/07/19 06:16:30;;;;;;;6.10;5.70;;;20.80;99.90;;;;;;5051933;28;20161;-69
2023/07/19 06:18:55;;;;;;;6.03;5.50;;;20.80;99.30;;;;;;5052676;28;20466;-69
2023/07/19 06:21:23;;;;;;;5.43;4.93;;;20.90;99.60;;;;;;5050806;28;20939;-69
2023/07/19 06:23:49;;;;;;;4.77;4.43;;;21.00;98.90;;;;;;5049151;28;20239;-66
2023/07/19 06:26:15;;;;;;;5.60;5.20;;;21.00;97.90;;;;;;5047538;28;20840;-61
2023/07/19 06:28:40;;;;;;;70.23;53.67;;;21.10;98.40;;;;;;5051847;28;20170;-61
2023/07/19 06:31:06;;;;;;;13.10;11.70;;;21.10;98.90;;;;;;5051169;28;20261;-62
2023/07/19 06:33:32;;;;;;;176.03;157.33;;;21.10;97.60;;;;;;5051976;28;20177;-63
2023/07/19 06:35:58;;;;;;;34.23;30.73;;;21.10;98.50;;;;;;5049797;28;20189;-63
2023/07/19 06:38:28;;;;;;;22.40;14.53;;;21.20;98.80;;;;;;5047320;28;20657;-63
2023/07/19 06:40:59;;;;;;;22.53;18.30;;;21.30;98.90;;;;;;5063381;28;20456;-64
2023/07/19 06:43:27;;;;;;;22.20;20.10;;;21.50;98.60;;;;;;5048015;28;20445;-64
2023/07/19 06:45:52;;;;;;;80.30;68.33;;;21.70;97.20;;;;;;5051213;28;20420;-64
2023/07/19 06:48:18;;;;;;;10.20;9.20;;;21.90;97.10;;;;;;5050855;28;20416;-63
2023/07/19 06:50:44;;;;;;;7.27;6.67;;;22.00;95.80;;;;;;5050664;28;20688;-64
2023/07/19 06:53:09;;;;;;;11.83;10.73;;;22.10;96.20;;;;;;5051227;28;20188;-63
2023/07/19 06:55:35;;;;;;;6.70;6.17;;;22.20;98.20;;;;;;5051419;28;20425;-64
2023/07/19 06:58:01;;;;;;;10.90;6.47;;;22.30;97.60;;;;;;5052802;28;20180;-64
2023/07/19 07:00:27;;;;;;;10.20;7.13;;;22.40;97.20;;;;;;5051034;28;20232;-64
2023/07/19 07:02:52;;;;;;;7.90;6.50;;;22.50;96.90;;;;;;5049498;28;20581;-61
2023/07/19 07:05:18;;;;;;;6.43;5.87;;;22.50;95.60;;;;;;5051155;28;20264;-62
2023/07/19 07:07:44;;;;;;;10.43;6.37;;;22.60;95.10;;;;;;5051161;28;20177;-64
2023/07/19 07:10:10;;;;;;;7.77;6.60;;;22.60;95.40;;;;;;5052943;28;20649;-60
2023/07/19 07:12:36;;;;;;;7.67;6.97;;;22.70;95.60;;;;;;5050251;28;20659;-60
2023/07/19 07:15:03;;;;;;;8.33;7.00;;;22.70;95.30;;;;;;5051096;28;20169;-61
2023/07/19 07:17:29;;;;;;;18.93;16.97;;;22.70;95.70;;;;;;5049632;28;20416;-60
2023/07/19 07:19:54;;;;;;;64.10;57.63;;;22.80;96.80;;;;;;5048311;28;20865;-65
2023/07/19 07:22:21;;;;;;;27.60;24.90;;;22.90;96.10;;;;;;5048250;28;20523;-62
2023/07/19 07:24:46;;;;;;;9.53;8.60;;;22.90;96.40;;;;;;5052065;28;20182;-60
2023/07/19 07:27:12;;;;;;;8.67;7.87;;;23.00;96.30;;;;;;5055295;28;20420;-60
2023/07/19 07:29:41;;;;;;;7.40;6.80;;;23.00;95.50;;;;;;5070992;28;20278;-60
2023/07/19 07:32:11;;;;;;;8.97;6.37;;;23.00;96.30;;;;;;5047170;28;20169;-60
2023/07/19 07:34:37;;;;;;;7.73;7.13;;;23.10;96.20;;;;;;5065026;28;20476;-60
2023/07/19 07:37:04;;;;;;;10.97;8.83;;;23.10;96.20;;;;;;5074035;28;20418;-60
2023/07/19 07:39:30;;;;;;;9.63;7.93;;;23.10;96.10;;;;;;5072830;28;20446;-60
2023/07/19 07:41:56;;;;;;;25.17;14.10;;;23.10;95.20;;;;;;5074872;28;20862;-63
2023/07/19 07:44:22;;;;;;;9.20;7.90;;;23.10;96.80;;;;;;5075163;28;20854;-62
2023/07/19 07:46:49;;;;;;;24.90;12.80;;;23.20;96.70;;;;;;5069215;28;20177;-62
2023/07/19 07:49:15;;;;;;;15.37;9.10;;;23.20;96.80;;;;;;5060448;28;20182;-63
2023/07/19 07:51:41;;;;;;;36.50;26.80;;;23.20;94.30;;;;;;5060141;28;20450;-63
2023/07/19 07:54:07;;;;;;;56.20;43.70;;;23.00;94.70;;;;;;5051472;28;20564;-63
2023/07/19 07:56:32;;;;;;;9.40;8.50;;;22.90;95.40;;;;;;5053940;28;20408;-63
2023/07/19 07:58:58;;;;;;;5.83;5.33;;;22.80;95.20;;;;;;5055023;28;20188;-63
2023/07/19 08:01:24;;;;;;;5.73;5.13;;;22.70;96.00;;;;;;5056685;28;20196;-63
2023/07/19 08:03:52;;;;;;;6.53;5.70;;;22.60;96.40;;;;;;5060110;28;20636;-63
2023/07/19 08:06:19;;;;;;;5.70;5.10;;;22.60;95.70;;;;;;5066654;28;20170;-62
2023/07/19 08:08:45;;;;;;;4.87;4.50;;;22.50;95.20;;;;;;5053965;28;20916;-63
2023/07/19 08:11:10;;;;;;;8.30;4.80;;;22.40;95.30;;;;;;5058716;28;20470;-63
2023/07/19 08:13:36;;;;;;;4.33;4.03;;;22.30;94.80;;;;;;5056559;28;20219;-63
2023/07/19 08:16:06;;;;;;;5.43;5.03;;;22.20;95.30;;;;;;5064671;28;20211;-63
2023/07/19 08:18:32;;;;;;;4.90;4.40;;;22.10;94.90;;;;;;5054404;28;20230;-63
2023/07/19 08:20:57;;;;;;;5.40;4.60;;;22.00;94.70;;;;;;5054937;28;20450;-63
2023/07/19 08:23:24;;;;;;;4.93;4.50;;;22.00;94.90;;;;;;5053655;28;20814;-63
2023/07/19 08:25:55;;;;;;;5.40;4.67;;;21.90;96.90;;;;;;5054938;28;20166;-63
2023/07/19 08:28:21;;;;;;;6.13;5.50;;;21.80;98.60;;;;;;5053918;28;20448;-63
2023/07/19 08:30:47;;;;;;;6.40;5.90;;;21.70;99.90;;;;;;5055094;28;20436;-63
2023/07/19 08:33:12;;;;;;;6.60;6.00;;;21.60;99.90;;;;;;5054846;28;20624;-63
2023/07/19 08:35:38;;;;;;;6.33;5.73;;;21.60;99.90;;;;;;5054470;28;20231;-63
2023/07/19 08:38:04;;;;;;;5.97;5.57;;;21.50;99.90;;;;;;5054706;28;20221;-63
2023/07/19 08:40:37;;;;;;;6.10;5.57;;;21.50;99.90;;;;;;5054311;28;20661;-63
2023/07/19 08:43:06;;;;;;;6.13;5.53;;;21.40;99.90;;;;;;5055016;28;20162;-63
2023/07/19 08:45:36;;;;;;;6.73;6.10;;;21.40;99.90;;;;;;5053550;28;20493;-63
2023/07/19 08:48:03;;;;;;;13.00;8.33;;;21.40;99.90;;;;;;5054863;28;20394;-62
2023/07/19 08:50:29;;;;;;;29.53;21.47;;;21.30;99.90;;;;;;5054038;28;20735;-62
2023/07/19 08:53:01;;;;;;;33.73;25.70;;;21.50;99.90;;;;;;5053339;28;20463;-62
2023/07/19 08:55:26;;;;;;;7.60;6.90;;;21.70;99.90;;;;;;5052749;28;20256;-62
2023/07/19 08:57:52;;;;;;;41.77;34.30;;;21.80;99.90;;;;;;5053498;28;20488;-62
2023/07/19 09:00:19;;;;;;;20.23;16.23;;;21.80;99.90;;;;;;5054796;28;20220;-63
2023/07/19 09:02:45;;;;;;;9.53;8.33;;;21.90;99.90;;;;;;5053308;28;20205;-63
2023/07/19 09:05:13;;;;;;;5.53;5.03;;;21.90;99.90;;;;;;5054450;28;20443;-62
2023/07/19 09:07:40;;;;;;;5.47;5.07;;;21.80;99.90;;;;;;5052401;28;20609;-62
2023/07/19 09:10:07;;;;;;;5.57;5.07;;;21.80;99.90;;;;;;5054620;28;20446;-63
2023/07/19 09:12:42;;;;;;;6.43;4.97;;;21.90;99.90;;;;;;5053454;28;20919;-63
2023/07/19 09:15:10;;;;;;;6.83;6.17;;;21.90;99.90;;;;;;5053154;28;20419;-63
2023/07/19 09:17:40;;;;;;;7.10;6.40;;;22.00;99.90;;;;;;5053648;28;20408;-63
2023/07/19 09:20:07;;;;;;;6.23;5.67;;;22.10;99.90;;;;;;5053945;28;20805;-62
2023/07/19 09:22:37;;;;;;;18.27;15.90;;;22.00;99.90;;;;;;5053614;28;20438;-63
2023/07/19 09:25:05;;;;;;;7.60;6.97;;;22.00;99.90;;;;;;5054167;28;20400;-63
2023/07/19 09:27:31;;;;;;;6.97;6.37;;;21.90;99.90;;;;;;5053422;28;20538;-63
2023/07/19 09:29:57;;;;;;;21.37;18.50;;;21.50;99.90;;;;;;5054061;28;20404;-63
2023/07/19 09:32:24;;;;;;;40.00;29.67;;;21.20;99.90;;;;;;5053296;28;20483;-63
2023/07/19 09:34:54;;;;;;;20.43;16.60;;;21.20;99.90;;;;;;5054163;28;20430;-63
2023/07/19 09:37:24;;;;;;;108.37;97.27;;;21.30;99.90;;;;;;5052568;28;20439;-63
2023/07/19 09:39:51;;;;;;;21.80;18.97;;;21.50;99.90;;;;;;5052509;28;20570;-63
2023/07/19 09:42:19;;;;;;;11.17;9.90;;;21.60;99.90;;;;;;5053751;28;20430;-63
2023/07/19 09:44:49;;;;;;;6.80;6.23;;;21.90;99.90;;;;;;5053117;28;20403;-63
2023/07/19 09:47:15;;;;;;;6.80;6.20;;;21.90;99.90;;;;;;5053232;28;20400;-63
2023/07/19 09:49:42;;;;;;;7.50;5.97;;;21.90;99.90;;;;;;5052640;28;20407;-63
2023/07/19 09:52:10;;;;;;;8.67;6.30;;;22.00;99.90;;;;;;5053468;28;20457;-63
2023/07/19 09:54:36;;;;;;;6.80;6.20;;;22.00;99.90;;;;;;5049426;28;20404;-63
2023/07/19 09:57:03;;;;;;;16.23;14.00;;;21.90;99.90;;;;;;5052088;28;20770;-63
2023/07/19 09:59:47;;;;;;;7.00;6.40;;;21.60;99.90;;;;;;5052209;28;20757;-63
2023/07/19 10:02:13;;;;;;;7.50;6.07;;;21.70;99.90;;;;;;5057886;28;20388;-63
2023/07/19 10:04:44;;;;;;;8.10;6.90;;;21.50;99.90;;;;;;5051984;28;20432;-63
2023/07/19 10:07:12;;;;;;;9.13;7.27;;;21.40;99.90;;;;;;5052614;28;20422;-63
2023/07/19 10:09:49;;;;;;;9.40;8.50;;;21.30;99.90;;;;;;5049698;28;20432;-63
2023/07/19 10:12:18;;;;;;;7.50;6.90;;;21.30;99.90;;;;;;5048533;28;20458;-63
2023/07/19 10:14:56;;;;;;;7.10;6.40;;;21.40;99.90;;;;;;5051152;28;20432;-63
2023/07/19 10:17:22;;;;;;;7.60;7.00;;;21.20;99.90;;;;;;5051319;28;20400;-63
2023/07/19 10:20:14;;;;;;;6.67;6.00;;;21.00;99.90;;;;;;5051896;28;20571;-63
2023/07/19 10:22:52;;;;;;;13.40;9.17;;;21.10;99.90;;;;;;5048505;28;20428;-63
2023/07/19 10:25:22;;;;;;;243.73;173.23;;;21.10;99.90;;;;;;5050193;28;20404;-63
2023/07/19 10:28:11;;;;;;;14.67;10.30;;;21.10;99.90;;;;;;5048986;28;20408;-62
2023/07/19 10:31:12;;;;;;;10.53;7.87;;;20.90;99.90;;;;;;5049582;28;20412;-62
2023/07/19 10:33:37;;;;;;;15.77;14.07;;;21.00;99.90;;;;;;5051868;28;20404;-62
2023/07/19 10:36:06;;;;;;;10.00;8.80;;;21.20;99.90;;;;;;5052903;28;20400;-62
2023/07/19 10:38:32;;;;;;;8.60;7.80;;;21.50;99.90;;;;;;5050936;28;20209;-62
2023/07/19 10:41:03;;;;;;;8.40;6.60;;;21.70;99.90;;;;;;5052684;28;20463;-63
2023/07/19 10:43:34;;;;;;;8.70;7.90;;;22.00;99.90;;;;;;5051075;28;20400;-62
2023/07/19 10:46:03;;;;;;;8.90;8.00;;;22.30;99.90;;;;;;5068185;28;20461;-63
2023/07/19 10:48:33;;;;;;;16.40;12.70;;;22.40;99.90;;;;;;5052067;28;20488;-62
2023/07/19 10:51:01;;;;;;;37.50;30.37;;;22.40;99.90;;;;;;5052679;28;20508;-62
2023/07/19 10:53:27;;;;;;;14.57;13.03;;;22.20;99.90;;;;;;5051984;28;20750;-62
2023/07/19 10:55:58;;;;;;;8.00;7.20;;;22.20;99.90;;;;;;5052836;28;20388;-62
2023/07/19 10:58:25;;;;;;;8.00;7.30;;;22.20;99.90;;;;;;5052659;28;20399;-62
2023/07/19 11:00:54;;;;;;;8.03;7.00;;;22.00;99.90;;;;;;5051870;28;20440;-62
2023/07/19 11:03:23;;;;;;;8.90;6.97;;;22.10;99.90;;;;;;5051407;28;20393;-62
2023/07/19 11:05:51;;;;;;;9.53;7.67;;;21.70;99.90;;;;;;5051879;28;20757;-62
2023/07/19 11:08:27;;;;;;;6.60;6.00;;;21.90;99.90;;;;;;5053268;28;20500;-67
2023/07/19 11:10:55;;;;;;;10.37;8.23;;;22.10;99.90;;;;;;5055834;28;20799;-67
2023/07/19 11:13:27;;;;;;;7.40;6.77;;;22.20;99.90;;;;;;5055414;28;20499;-67
2023/07/19 11:15:55;;;;;;;7.00;6.30;;;22.50;99.90;;;;;;5055822;28;20447;-65
2023/07/19 11:18:29;;;;;;;7.50;6.90;;;22.70;99.90;;;;;;5056101;28;20407;-66
2023/07/19 11:20:58;;;;;;;7.37;6.70;;;22.90;99.90;;;;;;5055583;28;20439;-65
2023/07/19 11:23:25;;;;;;;8.07;7.37;;;23.10;99.90;;;;;;5056314;28;20491;-65
2023/07/19 11:26:01;;;;;;;7.20;6.50;;;23.30;99.90;;;;;;5054770;28;20511;-65
2023/07/19 11:28:41;;;;;;;6.53;5.93;;;23.60;99.90;;;;;;5055411;28;20423;-65
2023/07/19 11:31:08;;;;;;;7.70;6.13;;;23.90;99.90;;;;;;5056284;28;20722;-62
2023/07/19 11:33:36;;;;;;;6.10;5.50;;;24.00;99.90;;;;;;5053935;28;20424;-62
2023/07/19 11:36:09;;;;;;;8.27;5.70;;;24.10;98.00;;;;;;5056147;28;20403;-62
2023/07/19 11:38:40;;;;;;;5.20;4.70;;;24.20;96.30;;;;;;5055003;28;20463;-63
2023/07/19 11:41:06;;;;;;;5.87;5.37;;;24.30;95.70;;;;;;5054849;28;20497;-63
2023/07/19 11:43:32;;;;;;;7.47;5.60;;;24.50;97.20;;;;;;5055424;28;20776;-63
2023/07/19 11:45:59;;;;;;;5.60;5.20;;;24.50;94.90;;;;;;5055996;28;20631;-63
2023/07/19 11:48:24;;;;;;;6.23;5.67;;;24.50;94.30;;;;;;5055923;28;20431;-62
2023/07/19 11:50:50;;;;;;;6.80;5.30;;;24.70;94.80;;;;;;5051814;28;20551;-63
2023/07/19 11:53:16;;;;;;;6.57;5.93;;;24.90;96.10;;;;;;5055778;28;20181;-63
2023/07/19 11:55:43;;;;;;;5.80;5.30;;;25.00;94.40;;;;;;5055031;28;20162;-63
2023/07/19 11:58:08;;;;;;;8.13;6.27;;;25.00;94.60;;;;;;5055774;28;20172;-62
2023/07/19 12:00:34;;;;;;;7.53;5.23;;;25.10;94.20;;;;;;5053885;28;20451;-63
2023/07/19 12:03:01;;;;;;;7.40;5.33;;;25.00;93.50;;;;;;5055773;28;20166;-62
2023/07/19 12:05:28;;;;;;;5.33;4.93;;;25.00;94.40;;;;;;5055545;28;20403;-63
2023/07/19 12:07:55;;;;;;;6.17;5.67;;;24.90;94.40;;;;;;5054922;28;20400;-62
2023/07/19 12:10:22;;;;;;;5.13;4.73;;;24.90;93.90;;;;;;5055549;28;20919;-62
2023/07/19 12:12:49;;;;;;;6.07;5.57;;;24.90;94.40;;;;;;5053476;28;20479;-62
2023/07/19 12:15:16;;;;;;;7.23;5.30;;;25.00;95.50;;;;;;5055491;28;20457;-63
2023/07/19 12:17:43;;;;;;;6.63;5.40;;;25.10;93.70;;;;;;5054879;28;20783;-62
2023/07/19 12:20:09;;;;;;;6.57;5.73;;;25.00;92.10;;;;;;5052952;28;20455;-63
2023/07/19 12:22:38;;;;;;;5.93;5.40;;;25.10;92.20;;;;;;5053595;28;20884;-63
2023/07/19 12:25:04;;;;;;;11.73;5.80;;;25.00;92.50;;;;;;5054615;28;20869;-62
2023/07/19 12:27:31;;;;;;;5.53;5.13;;;25.00;92.50;;;;;;5055209;28;20439;-62
2023/07/19 12:29:58;;;;;;;6.50;5.93;;;25.00;92.90;;;;;;5054554;28;20435;-62
2023/07/19 12:32:25;;;;;;;9.00;5.70;;;25.00;92.40;;;;;;5055138;28;20408;-62
2023/07/19 12:34:50;;;;;;;7.93;5.37;;;24.90;93.10;;;;;;5053229;28;20431;-63
2023/07/19 12:37:16;;;;;;;6.00;5.40;;;24.90;93.70;;;;;;5055297;28;20871;-62
2023/07/19 12:39:43;;;;;;;10.80;6.43;;;24.90;93.60;;;;;;5053877;28;20216;-63
2023/07/19 12:42:10;;;;;;;6.03;5.57;;;24.90;92.20;;;;;;5054956;28;20264;-62